Terminal Aerodrome Forecast
Issued by NWS

Current Version | Previous Version | Text Only | Print | Product List | Glossary On
Versions: 1 2 3 4 5 6 7 8 9 10 11 12 13 14 15 16 17 18 19 20 21 22 23 24 25 26 27 28 29 30 31 32 33 34 35 36 37 38 39 40 41 42 43 44 45 46 47
000
FTUS42 KMFL 182320
TAFMIA
TAF
KMIA 182320Z 1900/2006 03005KT P6SM SCT035 SCT060
     FM190100 VRB03KT P6SM FEW040
     FM191500 28008KT P6SM FEW040
     FM200000 29005KT P6SM FEW030 SCT060=

USA.gov is the U.S. government's official web portal to all federal, state and local government web resources and services.